createdAt,value
2017-11-28T00:01:38.723Z,4.87
2017-11-28T00:04:06.170Z,3.67
2017-11-28T00:06:33.688Z,5.30
2017-11-28T00:09:01.139Z,4.73
2017-11-28T00:11:28.633Z,4.23
2017-11-28T00:13:56.156Z,5.12
2017-11-28T00:16:23.629Z,7.33
2017-11-28T00:18:54.937Z,6.03
2017-11-28T00:21:23.086Z,5.18
2017-11-28T00:23:50.572Z,4.90
2017-11-28T00:26:18.829Z,3.62
2017-11-28T00:28:46.357Z,4.53
2017-11-28T00:31:13.851Z,4.60
2017-11-28T00:33:41.307Z,8.35
2017-11-28T00:36:08.788Z,5.65
2017-11-28T00:38:36.347Z,6.72
2017-11-28T00:41:03.835Z,9.30
2017-11-28T00:43:31.351Z,4.78
2017-11-28T00:45:58.903Z,4.90
2017-11-28T00:48:28.677Z,6.07
2017-11-28T00:50:56.182Z,4.25
2017-11-28T00:53:23.686Z,5.35
2017-11-28T00:55:51.169Z,4.40
2017-11-28T00:58:19.376Z,13.43
2017-11-28T01:00:47.241Z,3.90
2017-11-28T01:03:17.205Z,3.22
2017-11-28T01:05:44.709Z,3.42
2017-11-28T01:08:12.173Z,3.20
2017-11-28T01:10:40.618Z,8.00
2017-11-28T01:13:08.120Z,2.28
2017-11-28T01:15:35.643Z,3.65
2017-11-28T01:18:03.297Z,2.92
2017-11-28T01:20:30.779Z,2.75
2017-11-28T01:22:58.270Z,4.22
2017-11-28T01:25:25.773Z,2.70
2017-11-28T01:27:53.388Z,1.83
2017-11-28T01:30:20.933Z,5.10
2017-11-28T01:32:48.461Z,2.70
2017-11-28T01:35:15.957Z,5.78
2017-11-28T01:37:43.433Z,3.50
2017-11-28T01:40:10.897Z,5.00
2017-11-28T01:42:38.463Z,4.30
2017-11-28T01:45:05.958Z,2.43
2017-11-28T01:47:33.445Z,3.43
2017-11-28T01:50:00.983Z,2.67
2017-11-28T01:52:28.508Z,2.77
2017-11-28T01:54:55.978Z,3.10
2017-11-28T01:57:25.115Z,3.90
2017-11-28T01:59:52.588Z,2.50
2017-11-28T02:02:20.084Z,4.83
2017-11-28T02:04:47.593Z,4.53
2017-11-28T02:07:15.081Z,5.33
2017-11-28T02:09:42.563Z,3.63
2017-11-28T02:12:10.067Z,2.77
2017-11-28T02:14:37.572Z,3.37
2017-11-28T02:17:05.082Z,3.67
2017-11-28T02:19:32.610Z,2.80
2017-11-28T02:22:00.096Z,2.87
2017-11-28T02:24:28.018Z,5.73
2017-11-28T02:26:55.779Z,2.73
2017-11-28T02:29:23.294Z,3.40
2017-11-28T02:31:50.808Z,2.55
2017-11-28T02:34:18.312Z,2.33
2017-11-28T02:36:45.837Z,3.30
2017-11-28T02:39:13.362Z,2.90
2017-11-28T02:41:40.912Z,4.07
2017-11-28T02:44:18.309Z,1.93
2017-11-28T02:46:45.779Z,1.83
2017-11-28T02:49:25.004Z,3.23
2017-11-28T02:51:52.538Z,2.53
2017-11-28T02:54:20.100Z,2.53
2017-11-28T02:56:47.619Z,2.20
2017-11-28T02:59:15.884Z,3.83
2017-11-28T03:01:50.112Z,2.20
2017-11-28T03:04:17.857Z,1.97
2017-11-28T03:06:45.385Z,1.60
2017-11-28T03:09:16.539Z,2.37
2017-11-28T03:11:44.065Z,1.60
2017-11-28T03:14:32.581Z,2.10
2017-11-28T03:17:00.099Z,1.40
2017-11-28T03:22:33.927Z,2.25
2017-11-28T03:25:21.743Z,3.83
2017-11-28T03:27:50.164Z,1.70
2017-11-28T03:33:13.827Z,2.27
2017-11-28T03:35:41.358Z,1.80
2017-11-28T03:38:08.946Z,2.67
2017-11-28T03:40:37.221Z,2.30
2017-11-28T03:43:04.729Z,3.30
2017-11-28T03:45:34.630Z,2.53
2017-11-28T03:48:02.173Z,3.50
2017-11-28T03:50:29.679Z,2.60
2017-11-28T03:52:57.194Z,3.13
2017-11-28T03:55:24.787Z,3.27
2017-11-28T03:57:52.294Z,3.20
2017-11-28T04:00:35.453Z,3.20
2017-11-28T04:03:03.007Z,4.80
2017-11-28T04:05:30.531Z,5.20
2017-11-28T04:07:58.061Z,2.83
2017-11-28T04:10:25.573Z,5.20
2017-11-28T04:12:53.567Z,5.00
2017-11-28T04:15:21.048Z,7.87
2017-11-28T04:17:48.552Z,5.00
2017-11-28T04:20:16.116Z,4.20
2017-11-28T04:22:43.647Z,5.90
2017-11-28T04:25:11.174Z,4.03
2017-11-28T04:27:38.685Z,4.93
2017-11-28T04:30:06.227Z,5.37
2017-11-28T04:32:36.744Z,5.10
2017-11-28T04:35:04.200Z,6.67
2017-11-28T04:37:31.697Z,4.33
2017-11-28T04:39:59.350Z,5.90
2017-11-28T04:42:27.014Z,7.40
2017-11-28T04:44:54.547Z,8.37
2017-11-28T04:47:22.050Z,5.03
2017-11-28T04:49:49.515Z,5.93
2017-11-28T04:52:20.856Z,5.20
2017-11-28T04:54:55.786Z,6.20
2017-11-28T04:57:23.305Z,3.27
2017-11-28T04:59:50.758Z,2.43
2017-11-28T05:02:18.266Z,2.60
2017-11-28T05:04:45.811Z,3.22
2017-11-28T05:07:13.345Z,3.53
2017-11-28T05:09:40.814Z,4.70
2017-11-28T05:12:08.313Z,3.10
2017-11-28T05:14:36.648Z,3.57
2017-11-28T05:17:04.165Z,2.30
2017-11-28T05:19:31.678Z,4.90
2017-11-28T05:21:59.289Z,3.77
2017-11-28T05:24:27.679Z,4.33
2017-11-28T05:26:55.249Z,3.17
2017-11-28T05:29:22.758Z,7.33
2017-11-28T05:31:50.216Z,5.30
2017-11-28T05:34:17.753Z,5.73
2017-11-28T05:36:45.275Z,3.87
2017-11-28T05:39:12.789Z,4.23
2017-11-28T05:41:40.356Z,4.43
2017-11-28T05:44:07.883Z,7.57
2017-11-28T05:46:39.454Z,6.43
2017-11-28T05:49:06.999Z,7.63
2017-11-28T05:51:34.483Z,4.80
2017-11-28T05:54:02.874Z,5.70
2017-11-28T05:56:30.332Z,4.87
2017-11-28T05:58:57.842Z,4.73
2017-11-28T06:01:25.322Z,5.00
2017-11-28T06:03:52.848Z,8.23
2017-11-28T06:06:20.317Z,9.23
2017-11-28T06:08:47.822Z,7.27
2017-11-28T06:11:15.314Z,5.00
2017-11-28T06:13:42.817Z,4.20
2017-11-28T06:16:10.340Z,2.83
2017-11-28T06:18:37.850Z,3.70
2017-11-28T06:21:05.344Z,7.07
2017-11-28T06:23:32.846Z,4.80
2017-11-28T06:26:00.350Z,4.67
2017-11-28T06:28:27.852Z,3.03
2017-11-28T06:30:55.353Z,2.90
2017-11-28T06:33:22.858Z,3.37
2017-11-28T06:35:50.356Z,3.77
2017-11-28T06:38:17.992Z,5.47
2017-11-28T06:40:45.497Z,7.10
2017-11-28T06:43:13.067Z,4.90
2017-11-28T06:45:41.437Z,6.43
2017-11-28T06:48:08.959Z,3.47
2017-11-28T06:50:36.549Z,3.03
2017-11-28T06:53:04.070Z,4.03
2017-11-28T06:55:31.592Z,2.47
2017-11-28T06:57:59.124Z,5.60
2017-11-28T07:00:27.511Z,3.43
2017-11-28T07:02:55.047Z,6.03
2017-11-28T07:05:22.561Z,3.10
2017-11-28T07:07:50.078Z,6.57
2017-11-28T07:10:21.022Z,3.50
2017-11-28T07:12:48.496Z,4.33
2017-11-28T07:15:16.262Z,3.50
2017-11-28T07:17:43.817Z,4.30
2017-11-28T07:20:11.336Z,3.30
2017-11-28T07:22:41.806Z,3.70
2017-11-28T07:25:09.326Z,4.90
2017-11-28T07:27:36.840Z,4.30
2017-11-28T07:30:04.394Z,5.23
2017-11-28T07:32:32.844Z,4.90
2017-11-28T07:35:00.339Z,4.10
2017-11-28T07:37:27.798Z,9.83
2017-11-28T07:39:55.320Z,5.83
2017-11-28T07:42:22.841Z,4.60
2017-11-28T07:44:50.288Z,4.37
2017-11-28T07:47:17.831Z,11.50
2017-11-28T07:49:45.281Z,6.20
2017-11-28T07:52:12.816Z,4.30
2017-11-28T07:54:40.366Z,4.20
2017-11-28T07:57:07.894Z,7.97
2017-11-28T07:59:35.332Z,3.43
2017-11-28T08:02:02.838Z,5.90
2017-11-28T08:04:30.407Z,10.53
2017-11-28T08:06:58.265Z,5.73
2017-11-28T08:09:25.746Z,5.23
2017-11-28T08:11:53.233Z,7.07
2017-11-28T08:14:20.912Z,5.10
2017-11-28T08:16:48.443Z,5.37
2017-11-28T08:19:15.936Z,3.97
2017-11-28T08:21:43.418Z,5.00
2017-11-28T08:24:10.909Z,8.33
2017-11-28T08:26:38.588Z,3.23
2017-11-28T08:29:06.097Z,3.27
2017-11-28T08:31:32.899Z,3.83
2017-11-28T08:34:00.404Z,3.73
2017-11-28T08:36:28.376Z,3.40
2017-11-28T08:38:55.853Z,6.93
2017-11-28T08:41:23.359Z,4.57
2017-11-28T08:43:50.881Z,4.57
2017-11-28T08:46:18.376Z,4.10
2017-11-28T08:48:45.870Z,4.03
2017-11-28T08:51:13.394Z,6.43
2017-11-28T08:53:40.849Z,4.03
2017-11-28T08:56:08.398Z,9.70
2017-11-28T08:58:36.597Z,5.33
2017-11-28T09:01:04.122Z,6.83
2017-11-28T09:03:31.632Z,5.77
2017-11-28T09:05:59.113Z,9.27
2017-11-28T09:08:26.581Z,5.40
2017-11-28T09:10:54.064Z,5.07
2017-11-28T09:13:21.517Z,5.83
2017-11-28T09:15:48.974Z,5.93
2017-11-28T09:18:16.469Z,5.20
2017-11-28T09:20:43.923Z,4.03
2017-11-28T09:23:11.386Z,4.77
2017-11-28T09:25:38.902Z,4.93
2017-11-28T09:28:06.452Z,11.17
2017-11-28T09:30:34.010Z,6.40
2017-11-28T09:33:01.503Z,3.53
2017-11-28T09:35:29.012Z,4.10
2017-11-28T09:37:56.515Z,6.63
2017-11-28T09:40:24.027Z,6.00
2017-11-28T09:42:51.588Z,5.73
2017-11-28T09:45:19.066Z,5.30
2017-11-28T09:47:46.546Z,5.40
2017-11-28T09:50:15.095Z,6.60
2017-11-28T09:52:42.599Z,4.57
2017-11-28T09:55:10.087Z,4.73
2017-11-28T09:57:37.548Z,4.43
2017-11-28T10:00:05.020Z,9.83
2017-11-28T10:02:32.499Z,16.03
2017-11-28T10:04:59.974Z,6.97
2017-11-28T10:07:27.458Z,6.37
2017-11-28T10:09:54.927Z,5.90
2017-11-28T10:12:22.427Z,7.77
2017-11-28T10:14:49.914Z,10.63
2017-11-28T10:17:17.423Z,6.90
2017-11-28T10:19:44.873Z,6.90
2017-11-28T10:22:12.341Z,6.27
2017-11-28T10:24:39.819Z,8.00
2017-11-28T10:27:07.303Z,7.90
2017-11-28T10:29:34.805Z,11.47
2017-11-28T10:32:02.258Z,8.87
2017-11-28T10:34:29.768Z,6.40
2017-11-28T10:36:57.315Z,5.37
2017-11-28T10:39:24.792Z,6.17
2017-11-28T10:41:52.259Z,5.83
2017-11-28T10:44:19.707Z,5.73
2017-11-28T10:46:47.226Z,5.27
2017-11-28T10:49:14.685Z,7.83
2017-11-28T10:51:42.165Z,6.67
2017-11-28T10:54:09.618Z,10.33
2017-11-28T10:56:37.135Z,9.13
2017-11-28T10:59:04.607Z,5.80
2017-11-28T11:01:32.065Z,6.30
2017-11-28T11:03:59.500Z,8.03
2017-11-28T11:06:27.085Z,15.60
2017-11-28T11:08:54.560Z,9.37
2017-11-28T11:11:22.012Z,6.07
2017-11-28T11:13:49.486Z,11.27
2017-11-28T11:16:17.049Z,11.33
2017-11-28T11:18:44.527Z,6.87
2017-11-28T11:21:12.012Z,8.37
2017-11-28T11:23:39.474Z,8.43
2017-11-28T11:26:06.956Z,11.03
2017-11-28T11:28:34.451Z,7.43
2017-11-28T11:31:01.889Z,8.33
2017-11-28T11:33:29.341Z,10.20
2017-11-28T11:35:56.832Z,6.50
2017-11-28T11:38:24.289Z,6.07
2017-11-28T11:40:51.737Z,6.00
2017-11-28T11:43:19.209Z,7.77
2017-11-28T11:45:46.670Z,5.67
2017-11-28T11:48:14.122Z,7.80
2017-11-28T11:50:41.607Z,8.70
2017-11-28T11:53:09.101Z,6.33
2017-11-28T11:55:36.565Z,7.47
2017-11-28T11:58:04.025Z,6.30
2017-11-28T12:00:31.806Z,7.73
2017-11-28T12:02:59.308Z,8.33
2017-11-28T12:05:26.785Z,7.00
2017-11-28T12:07:54.259Z,10.50
2017-11-28T12:10:21.727Z,8.07
2017-11-28T12:12:49.353Z,7.20
2017-11-28T12:15:18.817Z,16.00
2017-11-28T12:17:46.298Z,9.20
2017-11-28T12:20:13.920Z,6.33
2017-11-28T12:22:41.665Z,6.70
2017-11-28T12:25:09.178Z,11.40
2017-11-28T12:27:36.641Z,5.67
2017-11-28T12:30:04.097Z,5.67
2017-11-28T12:32:31.757Z,6.30
2017-11-28T12:34:59.224Z,9.97
2017-11-28T12:37:26.674Z,9.00
2017-11-28T12:39:54.149Z,8.93
2017-11-28T12:42:21.642Z,5.33
2017-11-28T12:44:49.196Z,8.23
2017-11-28T12:47:16.687Z,5.10
2017-11-28T12:49:44.160Z,8.33
2017-11-28T12:52:11.613Z,11.13
2017-11-28T12:54:39.084Z,4.97
2017-11-28T12:57:06.553Z,8.63
2017-11-28T12:59:33.996Z,12.40
2017-11-28T13:02:01.461Z,10.07
2017-11-28T13:04:28.941Z,11.27
2017-11-28T13:06:56.589Z,7.70
2017-11-28T13:09:24.112Z,7.73
2017-11-28T13:11:51.586Z,7.87
2017-11-28T13:14:19.168Z,12.40
2017-11-28T13:16:46.768Z,8.77
2017-11-28T13:19:14.343Z,13.17
2017-11-28T13:21:41.810Z,13.93
2017-11-28T13:24:09.277Z,7.57
2017-11-28T13:26:36.787Z,11.73
2017-11-28T13:29:04.233Z,9.30
2017-11-28T13:31:31.722Z,8.37
2017-11-28T13:33:59.178Z,14.03
2017-11-28T13:36:26.859Z,8.80
2017-11-28T13:38:54.324Z,9.40
2017-11-28T13:41:21.781Z,8.80
2017-11-28T13:43:49.224Z,5.53
2017-11-28T13:46:16.705Z,8.63
2017-11-28T13:48:44.168Z,7.93
2017-11-28T13:51:11.620Z,8.87
2017-11-28T13:53:39.312Z,6.30
2017-11-28T13:56:06.785Z,7.87
2017-11-28T13:58:34.420Z,8.30
2017-11-28T14:01:01.961Z,6.50
2017-11-28T14:03:29.419Z,7.63
2017-11-28T14:05:56.884Z,9.13
2017-11-28T14:08:24.371Z,9.13
2017-11-28T14:10:51.884Z,9.10
2017-11-28T14:13:19.368Z,13.07
2017-11-28T14:15:46.845Z,10.30
2017-11-28T14:18:14.340Z,8.40
2017-11-28T14:23:51.355Z,10.73
2017-11-28T14:29:34.700Z,10.83
2017-11-28T14:35:22.989Z,6.10
2017-11-28T14:37:50.511Z,5.80
2017-11-28T14:40:18.149Z,5.73
2017-11-28T14:42:48.421Z,17.17
2017-11-28T14:45:20.481Z,8.50
2017-11-28T14:47:47.993Z,7.17
2017-11-28T14:50:15.657Z,8.67
2017-11-28T14:52:47.005Z,11.47
2017-11-28T14:55:20.076Z,9.50
2017-11-28T14:57:51.583Z,7.53
2017-11-28T15:00:24.657Z,9.90
2017-11-28T15:03:08.581Z,18.23
2017-11-28T15:05:38.733Z,5.60
2017-11-28T15:11:29.789Z,13.20
2017-11-28T15:14:02.685Z,8.83
2017-11-28T15:16:35.716Z,7.23
2017-11-28T15:22:15.834Z,6.10
2017-11-28T15:24:56.202Z,11.57
2017-11-28T15:27:23.710Z,15.20
2017-11-28T15:29:52.307Z,17.93
2017-11-28T15:32:20.105Z,15.80
2017-11-28T15:34:47.617Z,9.40
2017-11-28T15:37:15.721Z,11.47
2017-11-28T15:39:43.196Z,10.60
2017-11-28T15:42:10.675Z,9.73
2017-11-28T15:44:38.222Z,10.63
2017-11-28T15:47:05.728Z,11.60
2017-11-28T15:49:33.256Z,13.73
2017-11-28T15:52:00.785Z,21.43
2017-11-28T15:54:28.708Z,16.87
2017-11-28T15:56:56.215Z,12.83
2017-11-28T15:59:23.893Z,12.83
2017-11-28T16:01:51.430Z,11.40
2017-11-28T16:04:18.924Z,17.13
2017-11-28T16:06:47.566Z,17.63
2017-11-28T16:09:15.138Z,12.10
2017-11-28T16:11:42.661Z,14.70
2017-11-28T16:14:10.185Z,19.30
2017-11-28T16:16:37.809Z,16.00
2017-11-28T16:19:05.381Z,11.27
2017-11-28T16:21:32.849Z,13.27
2017-11-28T16:24:00.330Z,14.53
2017-11-28T16:29:01.754Z,23.00
2017-11-28T16:31:29.250Z,15.10
2017-11-28T16:33:56.836Z,13.93
2017-11-28T16:36:24.335Z,15.27
2017-11-28T16:38:51.795Z,22.90
2017-11-28T16:41:19.297Z,16.97
2017-11-28T16:43:46.800Z,12.17
2017-11-28T16:46:14.456Z,13.93
2017-11-28T16:48:41.976Z,15.10
2017-11-28T16:51:09.492Z,18.83
2017-11-28T16:53:36.973Z,13.80
2017-11-28T16:56:04.539Z,16.87
2017-11-28T16:58:33.240Z,13.47
2017-11-28T17:01:00.756Z,20.00
2017-11-28T17:03:28.242Z,23.70
2017-11-28T17:05:55.715Z,16.83
2017-11-28T17:08:23.203Z,21.50
2017-11-28T17:10:50.774Z,16.20
2017-11-28T17:13:18.310Z,50.23
2017-11-28T17:15:45.817Z,18.53
2017-11-28T17:18:13.329Z,16.40
2017-11-28T17:20:40.854Z,19.03
2017-11-28T17:23:08.371Z,12.40
2017-11-28T17:25:35.851Z,15.17
2017-11-28T17:28:03.329Z,12.90
2017-11-28T17:30:30.924Z,11.33
2017-11-28T17:32:58.429Z,13.00
2017-11-28T17:35:25.929Z,11.40
2017-11-28T17:37:53.448Z,14.03
2017-11-28T17:40:20.996Z,10.23
2017-11-28T17:42:48.788Z,11.40
2017-11-28T17:45:16.900Z,12.97
2017-11-28T17:47:44.445Z,14.80
2017-11-28T17:50:11.966Z,17.23
2017-11-28T17:52:39.472Z,18.33
2017-11-28T17:55:06.971Z,15.00
2017-11-28T17:57:34.504Z,23.43
2017-11-28T18:00:02.047Z,15.37
2017-11-28T18:02:29.629Z,16.23
2017-11-28T18:04:57.304Z,15.30
2017-11-28T18:07:24.798Z,12.87
2017-11-28T18:09:52.316Z,12.83
2017-11-28T18:12:19.821Z,12.40
2017-11-28T18:14:47.321Z,13.67
2017-11-28T18:17:14.804Z,14.90
2017-11-28T18:19:42.292Z,19.80
2017-11-28T18:22:09.825Z,12.30
2017-11-28T18:24:37.438Z,13.77
2017-11-28T18:27:05.038Z,16.60
2017-11-28T18:29:32.543Z,14.50
2017-11-28T18:32:00.134Z,13.27
2017-11-28T18:34:27.605Z,16.13
2017-11-28T18:36:55.554Z,15.13
2017-11-28T18:39:23.045Z,20.30
2017-11-28T18:41:50.517Z,12.53
2017-11-28T18:44:18.132Z,13.00
2017-11-28T18:46:45.628Z,12.30
2017-11-28T18:49:13.096Z,17.87
2017-11-28T18:51:40.569Z,10.57
2017-11-28T18:54:08.029Z,13.60
2017-11-28T18:56:37.914Z,12.80
2017-11-28T18:59:05.449Z,13.57
2017-11-28T19:01:32.965Z,10.73
2017-11-28T19:04:00.451Z,11.60
2017-11-28T19:06:29.146Z,13.70
2017-11-28T19:08:56.618Z,14.77
2017-11-28T19:11:24.094Z,11.60
2017-11-28T19:13:51.592Z,11.80
2017-11-28T19:16:19.097Z,15.17
2017-11-28T19:18:46.629Z,13.73
2017-11-28T19:21:14.107Z,11.20
2017-11-28T19:23:41.605Z,11.77
2017-11-28T19:26:09.574Z,19.97
2017-11-28T19:28:37.041Z,20.27
2017-11-28T19:31:04.703Z,16.67
2017-11-28T19:33:32.164Z,17.83
2017-11-28T19:35:59.639Z,15.90
2017-11-28T19:38:27.478Z,17.63
2017-11-28T19:40:54.963Z,16.03
2017-11-28T19:43:22.480Z,15.83
2017-11-28T19:45:49.943Z,19.23
2017-11-28T19:48:17.418Z,19.60
2017-11-28T19:50:45.489Z,13.93
2017-11-28T19:53:13.001Z,21.40
2017-11-28T19:55:40.470Z,16.53
2017-11-28T19:58:07.965Z,18.57
2017-11-28T20:00:35.470Z,21.53
2017-11-28T20:03:03.088Z,20.13
2017-11-28T20:05:30.604Z,20.40
2017-11-28T20:07:58.079Z,23.27
2017-11-28T20:10:25.581Z,19.47
2017-11-28T20:12:53.069Z,22.63
2017-11-28T20:15:20.597Z,13.70
2017-11-28T20:17:48.238Z,17.87
2017-11-28T20:20:15.723Z,13.93
2017-11-28T20:22:43.263Z,15.77
2017-11-28T20:25:10.757Z,17.63
2017-11-28T20:27:38.248Z,13.07
2017-11-28T20:30:05.733Z,14.77
2017-11-28T20:32:37.806Z,15.67
2017-11-28T20:35:05.354Z,17.20
2017-11-28T20:37:33.964Z,15.93
2017-11-28T20:40:01.547Z,15.90
2017-11-28T20:42:31.346Z,12.90
2017-11-28T20:44:58.906Z,15.60
2017-11-28T20:47:26.414Z,15.47
2017-11-28T20:49:54.162Z,17.37
2017-11-28T20:52:22.092Z,20.93
2017-11-28T20:54:51.260Z,14.60
2017-11-28T20:57:18.789Z,16.17
2017-11-28T20:59:46.338Z,14.33
2017-11-28T21:02:15.205Z,14.90
2017-11-28T21:04:42.727Z,23.07
2017-11-28T21:07:10.251Z,13.50
2017-11-28T21:09:37.999Z,16.37
2017-11-28T21:12:05.507Z,18.93
2017-11-28T21:14:33.084Z,16.07
2017-11-28T21:17:01.134Z,19.27
2017-11-28T21:19:28.862Z,21.13
2017-11-28T21:21:57.175Z,19.63
2017-11-28T21:24:26.035Z,12.70
2017-11-28T21:26:53.600Z,12.93
2017-11-28T21:29:21.181Z,12.37
2017-11-28T21:31:48.641Z,14.20
2017-11-28T21:34:16.398Z,14.20
2017-11-28T21:36:44.005Z,12.87
2017-11-28T21:39:12.482Z,13.30
2017-11-28T21:41:39.981Z,11.63
2017-11-28T21:44:07.506Z,10.50
2017-11-28T21:46:35.790Z,15.70
2017-11-28T21:49:03.348Z,13.20
2017-11-28T21:51:30.845Z,15.60
2017-11-28T21:53:58.357Z,16.17
2017-11-28T21:56:25.923Z,11.80
2017-11-28T21:58:53.403Z,12.27
2017-11-28T22:01:21.952Z,10.70
2017-11-28T22:03:49.461Z,14.10
2017-11-28T22:06:16.954Z,14.13
2017-11-28T22:08:44.436Z,12.43
2017-11-28T22:11:12.705Z,12.53
2017-11-28T22:13:40.207Z,13.17
2017-11-28T22:16:09.375Z,11.83
2017-11-28T22:18:36.875Z,12.63
2017-11-28T22:21:04.463Z,13.77
2017-11-28T22:23:32.012Z,13.23
2017-11-28T22:25:59.493Z,12.10
2017-11-28T22:28:26.973Z,14.73
2017-11-28T22:30:54.668Z,15.17
2017-11-28T22:33:22.274Z,13.17
2017-11-28T22:35:49.770Z,14.33
2017-11-28T22:38:17.278Z,12.17
2017-11-28T22:40:44.756Z,19.10
2017-11-28T22:43:12.241Z,12.50
2017-11-28T22:45:39.710Z,13.60
2017-11-28T22:48:07.179Z,11.60
2017-11-28T22:50:35.581Z,11.23
2017-11-28T22:53:03.181Z,12.07
2017-11-28T22:55:30.637Z,16.07
2017-11-28T22:57:58.141Z,15.67
2017-11-28T23:00:25.720Z,10.80
2017-11-28T23:02:53.325Z,13.30
2017-11-28T23:05:20.792Z,12.03
2017-11-28T23:07:48.252Z,13.30
2017-11-28T23:10:16.810Z,13.17
2017-11-28T23:12:44.310Z,18.00
2017-11-28T23:15:11.945Z,15.67
2017-11-28T23:17:39.436Z,14.10
2017-11-28T23:20:06.927Z,15.20
2017-11-28T23:22:34.639Z,9.50
2017-11-28T23:25:02.114Z,14.07
2017-11-28T23:27:29.605Z,16.03
2017-11-28T23:29:57.089Z,17.53
2017-11-28T23:32:24.587Z,15.77
2017-11-28T23:34:52.082Z,14.07
2017-11-28T23:37:19.605Z,14.83
2017-11-28T23:39:47.166Z,18.83
2017-11-28T23:42:14.644Z,12.27
2017-11-28T23:44:42.156Z,17.17
2017-11-28T23:47:09.681Z,16.37
2017-11-28T23:49:37.190Z,18.80
2017-11-28T23:52:04.716Z,12.03
2017-11-28T23:54:32.186Z,17.60
2017-11-28T23:56:59.652Z,17.60
2017-11-28T23:59:27.193Z,16.27
